createdAt,value
2022-09-26T00:02:27.167Z,99662.42
2022-09-26T00:05:35.098Z,99658.36
2022-09-26T00:08:40.952Z,99652.50
2022-09-26T00:11:46.856Z,99647.97
2022-09-26T00:14:52.268Z,99641.98
2022-09-26T00:17:57.725Z,99648.03
2022-09-26T00:21:06.728Z,99643.72
2022-09-26T00:24:12.129Z,99644.48
2022-09-26T00:27:17.526Z,99640.06
2022-09-26T00:30:22.888Z,99639.27
2022-09-26T00:33:28.317Z,99635.52
2022-09-26T00:36:38.433Z,99631.38
2022-09-26T00:39:44.636Z,99625.04
2022-09-26T00:42:49.907Z,99625.95
2022-09-26T00:45:56.155Z,99622.92
2022-09-26T00:49:06.106Z,99620.72
2022-09-26T00:52:16.380Z,99619.51
2022-09-26T00:55:24.323Z,99617.25
2022-09-26T00:58:34.125Z,99621.38
2022-09-26T01:01:39.605Z,99617.90
2022-09-26T01:04:46.570Z,99618.98
2022-09-26T01:07:55.330Z,99619.89
2022-09-26T01:11:00.769Z,99616.64
2022-09-26T01:14:09.781Z,99615.23
2022-09-26T01:17:16.113Z,99611.88
2022-09-26T01:20:29.682Z,99611.56
2022-09-26T01:23:58.719Z,99609.38
2022-09-26T01:27:10.687Z,99607.38
2022-09-26T01:30:17.991Z,99603.81
2022-09-26T01:33:43.271Z,99603.69
2022-09-26T01:37:03.204Z,99601.84
2022-09-26T01:40:12.164Z,99601.77
2022-09-26T01:43:24.801Z,99593.95
2022-09-26T01:46:35.325Z,99588.27
2022-09-26T01:49:47.449Z,99585.10
2022-09-26T01:52:58.407Z,99589.43
2022-09-26T01:56:05.983Z,99594.20
2022-09-26T01:59:15.060Z,99596.34
2022-09-26T02:02:28.157Z,99592.90
2022-09-26T02:05:36.732Z,99585.56
2022-09-26T02:08:46.138Z,99584.05
2022-09-26T02:11:55.191Z,99577.56
2022-09-26T02:15:04.020Z,99575.27
2022-09-26T02:18:13.991Z,99575.48
2022-09-26T02:21:22.264Z,99570.42
2022-09-26T02:24:28.571Z,99564.96
2022-09-26T02:27:34.543Z,99554.06
2022-09-26T02:30:40.713Z,99551.04
2022-09-26T02:33:45.945Z,99546.52
2022-09-26T02:36:51.183Z,99543.16
2022-09-26T02:39:59.142Z,99548.17
2022-09-26T02:43:09.115Z,99550.67
2022-09-26T02:46:39.704Z,99548.93
2022-09-26T02:49:57.522Z,99543.11
2022-09-26T02:53:07.875Z,99539.58
2022-09-26T02:56:28.215Z,99539.04
2022-09-26T02:59:36.563Z,99539.34
2022-09-26T03:02:47.019Z,99543.17
2022-09-26T03:05:59.643Z,99543.48
2022-09-26T03:09:05.990Z,99542.23
2022-09-26T03:12:12.727Z,99541.27
2022-09-26T03:15:20.827Z,99533.56
2022-09-26T03:18:33.707Z,99540.55
2022-09-26T03:21:39.712Z,99540.22
2022-09-26T03:24:45.829Z,99535.09
2022-09-26T03:27:51.978Z,99532.48
2022-09-26T03:30:57.417Z,99525.50
2022-09-26T03:34:07.111Z,99525.25
2022-09-26T03:37:12.420Z,99520.92
2022-09-26T03:40:19.938Z,99519.96
2022-09-26T03:43:34.579Z,99514.89
2022-09-26T03:46:40.604Z,99514.77
2022-09-26T03:49:46.501Z,99515.29
2022-09-26T03:52:52.533Z,99512.03
2022-09-26T03:56:04.665Z,99518.27
2022-09-26T03:59:11.877Z,99518.36
2022-09-26T04:02:17.763Z,99521.85
2022-09-26T04:05:23.487Z,99518.00
2022-09-26T04:08:28.912Z,99510.15
2022-09-26T04:11:36.788Z,99511.35
2022-09-26T04:14:43.462Z,99510.12
2022-09-26T04:17:50.261Z,99509.52
2022-09-26T04:21:03.303Z,99505.59
2022-09-26T04:24:14.528Z,99495.23
2022-09-26T04:27:20.489Z,99495.31
2022-09-26T04:30:25.830Z,99490.35
2022-09-26T04:33:39.223Z,99488.84
2022-09-26T04:36:46.220Z,99494.17
2022-09-26T04:39:52.009Z,99492.91
2022-09-26T04:42:57.219Z,99496.52
2022-09-26T04:46:07.137Z,99500.84
2022-09-26T04:49:14.157Z,99503.70
2022-09-26T04:52:20.239Z,99504.88
2022-09-26T04:55:26.194Z,99497.52
2022-09-26T04:58:32.042Z,99497.09
2022-09-26T05:01:37.379Z,99497.86
2022-09-26T05:04:49.742Z,99492.88
2022-09-26T05:07:55.750Z,99498.60
2022-09-26T05:11:01.711Z,99497.93
2022-09-26T05:14:09.065Z,99498.47
2022-09-26T05:17:15.596Z,99497.55
2022-09-26T05:20:24.153Z,99494.45
2022-09-26T05:23:58.013Z,99495.23
2022-09-26T05:27:06.021Z,99495.98
2022-09-26T05:30:13.314Z,99492.88
2022-09-26T05:33:19.383Z,99497.80
2022-09-26T05:36:24.921Z,99495.13
2022-09-26T05:39:47.825Z,99488.83
2022-09-26T05:43:00.446Z,99485.35
2022-09-26T05:46:07.566Z,99487.19
2022-09-26T05:49:16.243Z,99478.77
2022-09-26T05:52:22.975Z,99479.20
2022-09-26T05:55:29.644Z,99479.05
2022-09-26T05:58:43.768Z,99477.24
2022-09-26T06:02:19.994Z,99482.90
2022-09-26T06:05:49.305Z,99487.20
2022-09-26T06:08:58.226Z,99490.17
2022-09-26T06:12:25.306Z,99496.23
2022-09-26T06:15:31.244Z,99501.42
2022-09-26T06:18:37.410Z,99507.11
2022-09-26T06:21:44.241Z,99512.40
2022-09-26T06:24:53.163Z,99506.60
2022-09-26T06:28:00.615Z,99508.98
2022-09-26T06:31:11.550Z,99505.90
2022-09-26T06:34:54.668Z,99510.33
2022-09-26T06:38:19.592Z,99518.55
2022-09-26T06:41:26.725Z,99516.12
2022-09-26T06:44:33.048Z,99511.67
2022-09-26T06:48:07.067Z,99508.93
2022-09-26T06:51:32.908Z,99511.34
2022-09-26T06:54:38.251Z,99513.50
2022-09-26T06:57:44.494Z,99516.23
2022-09-26T07:00:50.776Z,99516.81
2022-09-26T07:04:17.227Z,99509.81
2022-09-26T07:07:32.734Z,99506.95
2022-09-26T07:10:38.550Z,99503.77
2022-09-26T07:13:47.612Z,99504.25
2022-09-26T07:16:52.998Z,99506.02
2022-09-26T07:20:19.638Z,99501.42
2022-09-26T07:23:33.730Z,99498.49
2022-09-26T07:26:39.319Z,99501.70
2022-09-26T07:29:45.931Z,99500.26
2022-09-26T07:32:51.130Z,99504.48
2022-09-26T07:36:11.220Z,99501.61
2022-09-26T07:39:16.586Z,99497.88
2022-09-26T07:42:22.832Z,99505.66
2022-09-26T07:45:42.580Z,99502.40
2022-09-26T07:49:05.655Z,99501.73
2022-09-26T07:52:33.715Z,99505.87
2022-09-26T07:56:11.424Z,99511.33
2022-09-26T07:59:35.765Z,99508.70
2022-09-26T08:03:07.530Z,99503.56
2022-09-26T08:06:17.759Z,99505.06
2022-09-26T08:09:23.219Z,99505.92
2022-09-26T08:12:54.926Z,99503.39
2022-09-26T08:16:14.784Z,99505.86
2022-09-26T08:19:23.022Z,99508.48
2022-09-26T08:22:28.461Z,99513.38
2022-09-26T08:25:33.836Z,99511.48
2022-09-26T08:28:43.096Z,99513.30
2022-09-26T08:31:48.642Z,99516.14
2022-09-26T08:34:54.281Z,99512.42
2022-09-26T08:38:18.564Z,99515.59
2022-09-26T08:41:50.297Z,99511.23
2022-09-26T08:45:47.676Z,99511.29
2022-09-26T08:49:39.612Z,99512.59
2022-09-26T08:52:46.897Z,99508.11
2022-09-26T08:55:55.095Z,99510.55
2022-09-26T08:59:03.578Z,99510.96
2022-09-26T09:02:17.937Z,99515.20
2022-09-26T09:05:33.069Z,99515.20
2022-09-26T09:08:41.046Z,99513.01
2022-09-26T09:12:08.795Z,99513.23
2022-09-26T09:15:26.085Z,99512.95
2022-09-26T09:19:05.847Z,99508.18
2022-09-26T09:22:46.400Z,99513.60
2022-09-26T09:29:49.455Z,99512.15
2022-09-26T09:33:15.729Z,99512.68
2022-09-26T09:36:28.172Z,99512.11
2022-09-26T09:39:52.526Z,99512.42
2022-09-26T09:43:04.035Z,99516.23
2022-09-26T09:46:17.871Z,99518.02
2022-09-26T09:49:24.309Z,99517.54
2022-09-26T09:52:46.400Z,99520.25
2022-09-26T09:55:59.170Z,99513.61
2022-09-26T09:59:09.744Z,99517.71
2022-09-26T10:02:33.322Z,99512.35
2022-09-26T10:05:44.209Z,99516.12
2022-09-26T10:08:55.302Z,99514.43
2022-09-26T10:12:22.031Z,99508.62
2022-09-26T10:15:58.084Z,99517.70
2022-09-26T10:19:37.547Z,99515.88
2022-09-26T10:22:45.481Z,99520.67
2022-09-26T10:26:03.557Z,99517.52
2022-09-26T10:29:21.665Z,99517.97
2022-09-26T10:32:27.348Z,99507.82
2022-09-26T10:35:43.719Z,99503.50
2022-09-26T10:39:12.082Z,99505.33
2022-09-26T10:42:20.213Z,99503.41
2022-09-26T10:45:35.761Z,99498.95
2022-09-26T10:49:14.822Z,99500.70
2022-09-26T10:52:24.858Z,99502.26
2022-09-26T10:55:32.566Z,99494.48
2022-09-26T10:58:41.125Z,99490.57
2022-09-26T11:01:49.870Z,99482.77
2022-09-26T11:05:15.769Z,99482.95
2022-09-26T11:08:51.441Z,99479.59
2022-09-26T11:12:25.390Z,99480.23
2022-09-26T11:15:32.150Z,99482.33
2022-09-26T11:18:44.591Z,99487.96
2022-09-26T11:21:53.822Z,99484.37
2022-09-26T11:25:06.241Z,99480.95
2022-09-26T11:28:16.220Z,99481.79
2022-09-26T11:31:44.593Z,99479.84
2022-09-26T11:35:06.170Z,99478.50
2022-09-26T11:38:17.466Z,99480.48
2022-09-26T11:41:38.113Z,99476.13
2022-09-26T11:44:52.386Z,99470.91
2022-09-26T11:48:20.569Z,99470.08
2022-09-26T11:52:00.749Z,99468.46
2022-09-26T11:55:11.888Z,99463.66
2022-09-26T11:58:22.645Z,99464.83
2022-09-26T12:01:38.335Z,99464.77
2022-09-26T12:05:01.811Z,99461.31
2022-09-26T12:08:21.785Z,99457.44
2022-09-26T12:11:34.177Z,99454.45
2022-09-26T12:14:45.377Z,99448.84
2022-09-26T12:17:59.675Z,99451.90
2022-09-26T12:21:11.489Z,99447.05
2022-09-26T12:24:24.037Z,99446.38
2022-09-26T12:27:33.513Z,99444.55
2022-09-26T12:30:42.113Z,99447.38
2022-09-26T12:33:58.183Z,99444.48
2022-09-26T12:37:11.412Z,99443.11
2022-09-26T12:40:25.904Z,99435.04
2022-09-26T12:43:50.920Z,99432.39
2022-09-26T12:47:23.876Z,99437.08
2022-09-26T12:50:37.692Z,99434.64
2022-09-26T12:53:50.861Z,99424.61
2022-09-26T12:56:59.766Z,99427.63
2022-09-26T13:00:12.793Z,99424.01
2022-09-26T13:03:27.745Z,99425.75
2022-09-26T13:06:57.316Z,99420.88
2022-09-26T13:10:20.390Z,99419.56
2022-09-26T13:13:44.077Z,99420.55
2022-09-26T13:17:00.505Z,99410.23
2022-09-26T13:20:14.613Z,99405.75
2022-09-26T13:23:27.455Z,99405.16
2022-09-26T13:26:35.690Z,99402.72
2022-09-26T13:29:44.795Z,99399.51
2022-09-26T13:32:55.891Z,99398.34
2022-09-26T13:36:02.454Z,99390.73
2022-09-26T13:39:10.611Z,99394.67
2022-09-26T13:42:20.032Z,99392.30
2022-09-26T13:45:29.157Z,99391.86
2022-09-26T13:48:38.630Z,99392.27
2022-09-26T13:51:50.211Z,99380.69
2022-09-26T13:55:00.511Z,99378.29
2022-09-26T13:58:07.933Z,99382.07
2022-09-26T14:01:29.029Z,99380.80
2022-09-26T14:04:35.456Z,99382.14
2022-09-26T14:08:10.538Z,99386.25
2022-09-26T14:11:24.585Z,99378.91
2022-09-26T14:14:54.310Z,99370.10
2022-09-26T14:18:15.373Z,99363.05
2022-09-26T14:21:33.034Z,99355.98
2022-09-26T14:24:41.542Z,99358.14
2022-09-26T14:27:47.417Z,99357.12
2022-09-26T14:31:24.956Z,99353.64
2022-09-26T14:34:31.532Z,99350.88
2022-09-26T14:37:42.333Z,99356.61
2022-09-26T14:40:55.835Z,99360.73
2022-09-26T14:44:04.069Z,99365.92
2022-09-26T14:47:16.173Z,99363.00
2022-09-26T14:50:22.903Z,99357.95
2022-09-26T14:53:30.572Z,99359.17
2022-09-26T14:56:45.536Z,99358.09
2022-09-26T14:59:52.120Z,99353.46
2022-09-26T15:03:01.102Z,99348.36
2022-09-26T15:06:08.966Z,99344.20
2022-09-26T15:09:19.497Z,99342.67
2022-09-26T15:12:28.119Z,99344.31
2022-09-26T15:15:39.080Z,99345.99
2022-09-26T15:18:46.519Z,99348.08
2022-09-26T15:21:57.293Z,99346.05
2022-09-26T15:25:10.011Z,99339.25
2022-09-26T15:28:15.397Z,99336.59
2022-09-26T15:31:25.345Z,99335.34
2022-09-26T15:34:34.258Z,99332.80
2022-09-26T15:37:39.751Z,99328.98
2022-09-26T15:40:59.526Z,99330.75
2022-09-26T15:44:06.859Z,99325.45
2022-09-26T15:47:26.248Z,99322.94
2022-09-26T15:50:39.235Z,99322.65
2022-09-26T15:53:46.797Z,99317.16
2022-09-26T15:56:52.365Z,99316.40
2022-09-26T15:59:59.484Z,99319.77
2022-09-26T16:03:36.330Z,99316.38
2022-09-26T16:06:42.876Z,99317.50
2022-09-26T16:09:51.245Z,99312.41
2022-09-26T16:12:57.152Z,99309.68
2022-09-26T16:16:04.131Z,99307.77
2022-09-26T16:19:27.637Z,99308.44
2022-09-26T16:22:40.160Z,99306.10
2022-09-26T16:25:54.993Z,99303.91
2022-09-26T16:29:01.653Z,99308.39
2022-09-26T16:32:07.133Z,99302.34
2022-09-26T16:35:19.682Z,99300.08
2022-09-26T16:38:28.038Z,99300.58
2022-09-26T16:45:04.677Z,99297.63
2022-09-26T16:48:23.743Z,99299.42
2022-09-26T16:51:30.919Z,99296.21
2022-09-26T16:54:36.356Z,99297.73
2022-09-26T16:57:51.601Z,99295.73
2022-09-26T17:01:14.755Z,99297.38
2022-09-26T17:04:21.260Z,99300.50
2022-09-26T17:07:26.603Z,99296.55
2022-09-26T17:10:37.586Z,99298.08
2022-09-26T17:13:44.012Z,99301.19
2022-09-26T17:16:55.051Z,99300.54
2022-09-26T17:20:01.925Z,99304.79
2022-09-26T17:23:34.828Z,99305.23
2022-09-26T17:26:36.151Z,99301.65
2022-09-26T17:29:43.764Z,99297.60
2022-09-26T17:32:51.256Z,99299.77
2022-09-26T17:35:57.079Z,99296.06
2022-09-26T17:39:02.840Z,99294.66
2022-09-26T17:42:08.307Z,99289.13
2022-09-26T17:45:13.807Z,99285.10
2022-09-26T17:48:24.295Z,99287.41
2022-09-26T17:51:31.478Z,99284.79
2022-09-26T17:54:42.700Z,99284.12
2022-09-26T17:57:48.019Z,99281.70
2022-09-26T18:00:53.491Z,99287.11
2022-09-26T18:04:01.077Z,99290.20
2022-09-26T18:07:06.694Z,99290.02
2022-09-26T18:10:17.120Z,99287.55
2022-09-26T18:13:25.218Z,99290.25
2022-09-26T18:16:33.378Z,99285.61
2022-09-26T18:19:38.788Z,99285.58
2022-09-26T18:22:44.311Z,99282.80
2022-09-26T18:25:51.615Z,99287.33
2022-09-26T18:28:58.124Z,99283.39
2022-09-26T18:32:04.052Z,99283.07
2022-09-26T18:35:11.401Z,99277.55
2022-09-26T18:38:17.071Z,99275.89
2022-09-26T18:41:26.962Z,99277.48
2022-09-26T18:44:35.282Z,99271.91
2022-09-26T18:47:41.956Z,99269.92
2022-09-26T18:50:47.424Z,99267.70
2022-09-26T18:53:53.001Z,99266.94
2022-09-26T18:57:15.982Z,99267.19
2022-09-26T19:00:21.384Z,99264.92
2022-09-26T19:03:28.554Z,99264.43
2022-09-26T19:06:36.570Z,99262.45
2022-09-26T19:09:41.886Z,99266.91
2022-09-26T19:12:47.240Z,99266.56
2022-09-26T19:15:53.350Z,99265.77
2022-09-26T19:18:58.743Z,99263.88
2022-09-26T19:22:08.284Z,99260.02
2022-09-26T19:25:13.719Z,99258.85
2022-09-26T19:28:21.808Z,99255.48
2022-09-26T19:31:27.870Z,99255.44
2022-09-26T19:34:33.774Z,99250.12
2022-09-26T19:37:39.141Z,99245.91
2022-09-26T19:40:48.640Z,99245.16
2022-09-26T19:43:54.567Z,99240.29
2022-09-26T19:47:00.026Z,99245.02
2022-09-26T19:50:05.663Z,99248.29
2022-09-26T19:53:14.275Z,99246.17
2022-09-26T19:56:19.829Z,99243.95
2022-09-26T19:59:27.526Z,99241.92
2022-09-26T20:02:33.643Z,99240.80
2022-09-26T20:05:39.727Z,99235.46
2022-09-26T20:08:45.116Z,99236.90
2022-09-26T20:11:50.474Z,99237.27
2022-09-26T20:14:55.744Z,99239.45
2022-09-26T20:18:01.119Z,99231.10
2022-09-26T20:21:07.178Z,99229.18
2022-09-26T20:24:14.973Z,99223.23
2022-09-26T20:27:21.378Z,99222.39
2022-09-26T20:30:59.207Z,99216.48
2022-09-26T20:34:04.710Z,99201.27
2022-09-26T20:37:11.975Z,99196.20
2022-09-26T20:40:18.752Z,99205.83
2022-09-26T20:43:27.404Z,99219.19
2022-09-26T20:46:35.205Z,99217.58
2022-09-26T20:49:43.675Z,99210.71
2022-09-26T20:52:48.928Z,99211.02
2022-09-26T20:55:55.163Z,99211.73
2022-09-26T20:59:00.371Z,99211.02
2022-09-26T21:02:23.350Z,99204.52
2022-09-26T21:05:31.731Z,99203.98
2022-09-26T21:08:37.151Z,99203.48
2022-09-26T21:11:42.735Z,99198.55
2022-09-26T21:14:48.408Z,99198.52
2022-09-26T21:17:54.621Z,99192.70
2022-09-26T21:21:04.921Z,99194.09
2022-09-26T21:24:32.274Z,99191.13
2022-09-26T21:27:37.618Z,99186.02
2022-09-26T21:30:43.760Z,99188.14
2022-09-26T21:33:49.438Z,99187.83
2022-09-26T21:36:57.171Z,99187.37
2022-09-26T21:40:02.981Z,99185.58
2022-09-26T21:43:11.133Z,99183.64
2022-09-26T21:46:17.461Z,99176.04
2022-09-26T21:49:22.913Z,99174.41
2022-09-26T21:52:29.883Z,99169.61
2022-09-26T21:55:38.801Z,99170.29
2022-09-26T21:58:44.914Z,99164.93
2022-09-26T22:01:50.446Z,99163.58
2022-09-26T22:04:55.899Z,99164.00
2022-09-26T22:08:01.936Z,99156.61
2022-09-26T22:11:09.083Z,99156.77
2022-09-26T22:14:14.455Z,99152.59
2022-09-26T22:17:20.147Z,99150.66
2022-09-26T22:20:25.351Z,99140.71
2022-09-26T22:23:30.818Z,99136.86
2022-09-26T22:26:36.112Z,99130.27
2022-09-26T22:29:41.678Z,99121.05
2022-09-26T22:32:47.003Z,99115.86
2022-09-26T22:35:52.345Z,99109.67
2022-09-26T22:38:57.700Z,99104.27
2022-09-26T22:42:02.941Z,99102.52
2022-09-26T22:45:09.169Z,99096.95
2022-09-26T22:48:14.519Z,99097.55
2022-09-26T22:51:19.847Z,99094.98
2022-09-26T22:54:25.296Z,99087.52
2022-09-26T22:57:32.857Z,99085.57
2022-09-26T23:00:38.632Z,99076.19
2022-09-26T23:03:43.938Z,99074.82
2022-09-26T23:06:51.854Z,99070.98
2022-09-26T23:09:57.254Z,99079.67
2022-09-26T23:13:03.483Z,99075.98
2022-09-26T23:16:09.924Z,99068.27
2022-09-26T23:19:16.629Z,99071.77
2022-09-26T23:22:22.004Z,99062.96
2022-09-26T23:25:27.371Z,99055.78
2022-09-26T23:28:35.810Z,99059.04
2022-09-26T23:31:41.174Z,99053.61
2022-09-26T23:34:46.527Z,99054.03
2022-09-26T23:37:51.713Z,99054.60
2022-09-26T23:40:57.581Z,99041.58
2022-09-26T23:44:03.110Z,99037.63
2022-09-26T23:47:08.359Z,99038.89
2022-09-26T23:50:13.842Z,99036.02
2022-09-26T23:53:19.101Z,99026.83
2022-09-26T23:56:24.423Z,99023.52
2022-09-26T23:59:29.668Z,99020.83
